Time;durP1;ratioP1;P1;durP2;ratioP2;P2;SDS_P1;SDS_P2;PMS_P1;PMS_P2;Temp;Humidity;BMP_temperature;BMP_pressure;BME280_temperature;BME280_humidity;BME280_pressure;Samples;Min_cycle;Max_cycle;Signal;HPM_P1;HPM_P2
2021/12/14 00:01:40;;;;;;;23.77;14.07;;;;;;;8.00;100.00;102602.78;4970121;28;20145;-71
2021/12/14 00:04:13;;;;;;;24.95;14.73;;;;;;;8.12;100.00;102596.22;4996999;28;20057;-72
2021/12/14 00:06:40;;;;;;;24.80;14.50;;;;;;;8.21;100.00;102609.44;4996303;28;20042;-72
2021/12/14 00:09:09;;;;;;;24.27;15.77;;;;;;;8.12;100.00;102607.09;4979270;28;20045;-71
2021/12/14 00:15:01;;;;;;;26.63;17.02;;;;;;;8.19;100.00;102600.69;4976829;28;20369;-72
2021/12/14 00:17:02;;;;;;;29.95;17.85;;;;;;;8.06;100.00;102597.22;4976608;28;20038;-72
2021/12/14 00:19:28;;;;;;;27.02;16.55;;;;;;;8.03;100.00;102594.13;4976907;28;20117;-72
2021/12/14 00:22:02;;;;;;;26.90;16.38;;;;;;;8.04;100.00;102596.63;4977952;28;20421;-71
2021/12/14 00:24:28;;;;;;;27.25;15.57;;;;;;;8.05;100.00;102598.25;4976715;28;20172;-73
2021/12/14 00:27:00;;;;;;;30.27;16.92;;;;;;;8.20;100.00;102596.88;4975968;28;20042;-72
2021/12/14 00:29:32;;;;;;;29.77;15.35;;;;;;;8.10;100.00;102598.34;4976908;28;20030;-71
2021/12/14 00:32:02;;;;;;;23.98;16.02;;;;;;;8.13;100.00;102600.59;4958458;28;20050;-72
2021/12/14 00:34:40;;;;;;;28.90;16.70;;;;;;;8.08;100.00;102589.63;4976043;28;20499;-72
2021/12/14 00:37:08;;;;;;;31.83;17.45;;;;;;;8.02;100.00;102589.78;4976271;28;20042;-71
2021/12/14 00:39:35;;;;;;;28.05;18.00;;;;;;;8.12;100.00;102589.97;4974218;28;20411;-71
2021/12/14 00:42:01;;;;;;;28.80;17.00;;;;;;;8.06;100.00;102602.66;4974117;28;20411;-72
2021/12/14 00:44:27;;;;;;;25.27;15.57;;;;;;;8.14;100.00;102609.56;4976417;28;20074;-71
2021/12/14 00:46:53;;;;;;;31.80;17.23;;;;;;;8.07;100.00;102609.72;4974491;28;20130;-72
2021/12/14 00:49:19;;;;;;;30.02;17.70;;;;;;;8.27;100.00;102603.00;4976798;28;20129;-71
2021/12/14 00:51:44;;;;;;;37.42;17.63;;;;;;;8.09;100.00;102602.16;4976435;28;20050;-71
2021/12/14 00:54:13;;;;;;;34.13;17.23;;;;;;;8.20;100.00;102613.19;4973705;28;20042;-72
2021/12/14 00:56:40;;;;;;;29.52;17.25;;;;;;;8.16;100.00;102605.53;4975973;28;20050;-72
2021/12/14 00:59:08;;;;;;;30.42;18.83;;;;;;;8.20;100.00;102607.75;4976667;28;20041;-72
2021/12/14 01:01:39;;;;;;;32.15;19.23;;;;;;;8.22;100.00;102606.44;4960533;28;20570;-72
2021/12/14 01:04:11;;;;;;;34.70;17.88;;;;;;;8.09;100.00;102623.88;4993784;28;20050;-72
2021/12/14 01:06:44;;;;;;;32.42;18.40;;;;;;;8.26;100.00;102623.94;4977554;28;20483;-72
2021/12/14 01:09:11;;;;;;;30.50;18.50;;;;;;;8.17;100.00;102619.94;4977820;28;20406;-71
2021/12/14 01:11:44;;;;;;;34.70;17.85;;;;;;;8.05;100.00;102630.03;4974176;28;20043;-71
2021/12/14 01:14:16;;;;;;;33.13;18.73;;;;;;;8.01;100.00;102610.69;4975230;28;20060;-71
2021/12/14 01:16:55;;;;;;;28.08;18.80;;;;;;;8.08;100.00;102616.78;4957412;28;20482;-72
2021/12/14 01:19:29;;;;;;;33.22;17.70;;;;;;;8.11;100.00;102619.03;4973962;28;20034;-71
2021/12/14 01:25:14;;;;;;;26.48;17.27;;;;;;;8.12;100.00;102623.41;4976189;28;20151;-72
2021/12/14 01:28:09;;;;;;;36.05;17.52;;;;;;;8.12;100.00;102623.41;4974526;28;20528;-72
2021/12/14 01:31:08;;;;;;;25.60;16.92;;;;;;;8.15;100.00;102617.47;4975847;28;20049;-72
2021/12/14 01:33:37;;;;;;;29.55;17.73;;;;;;;8.07;100.00;102609.72;4957120;28;20046;-71
2021/12/14 01:36:10;;;;;;;29.17;18.60;;;;;;;8.03;100.00;102605.00;4958108;28;20042;-71
2021/12/14 01:38:46;;;;;;;31.90;18.58;;;;;;;8.04;100.00;102590.38;4973577;28;20112;-71
2021/12/14 01:41:15;;;;;;;37.35;19.60;;;;;;;8.01;100.00;102580.81;4973717;28;20040;-71
2021/12/14 01:43:52;;;;;;;35.92;19.00;;;;;;;8.02;100.00;102579.72;4958757;28;20042;-72
2021/12/14 01:46:26;;;;;;;34.42;19.45;;;;;;;8.06;100.00;102572.75;4974308;28;20049;-71
2021/12/14 01:49:04;;;;;;;32.10;17.67;;;;;;;8.05;100.00;102583.84;4982991;28;20074;-71
2021/12/14 01:51:47;;;;;;;30.08;17.75;;;;;;;7.99;100.00;102584.84;4978991;28;20041;-71
2021/12/14 01:54:22;;;;;;;31.70;18.05;;;;;;;8.07;100.00;102555.38;4947373;28;20033;-72
2021/12/14 01:56:48;;;;;;;29.85;16.63;;;;;;;8.09;100.00;102572.25;4977288;28;20046;-72
2021/12/14 01:59:35;;;;;;;31.50;17.65;;;;;;;7.97;100.00;102586.97;4976926;28;20041;-72
2021/12/14 02:02:17;;;;;;;30.70;17.83;;;;;;;8.05;100.00;102579.25;4977594;28;20092;-72
2021/12/14 02:04:46;;;;;;;27.52;16.70;;;;;;;7.93;100.00;102576.56;4995100;28;20398;-71
2021/12/14 02:07:13;;;;;;;29.25;18.40;;;;;;;7.91;100.00;102561.59;4980269;28;20573;-71
2021/12/14 02:09:43;;;;;;;34.83;19.63;;;;;;;7.99;100.00;102553.06;4981420;28;20489;-71
2021/12/14 02:12:19;;;;;;;37.38;22.85;;;;;;;7.91;100.00;102564.31;4997923;28;20391;-72
2021/12/14 02:14:46;;;;;;;39.05;25.25;;;;;;;7.97;100.00;102555.22;4981033;28;20030;-71
2021/12/14 02:17:16;;;;;;;42.97;25.63;;;;;;;7.94;100.00;102556.53;4998989;28;20565;-71
2021/12/14 02:19:42;;;;;;;38.80;23.58;;;;;;;8.05;100.00;102552.06;4980340;28;20061;-71
2021/12/14 02:22:09;;;;;;;43.65;22.92;;;;;;;7.96;100.00;102556.25;4996979;28;20048;-72
2021/12/14 02:24:37;;;;;;;32.10;21.50;;;;;;;8.01;100.00;102564.50;4999289;28;20033;-71
2021/12/14 02:27:03;;;;;;;36.53;22.73;;;;;;;7.92;100.00;102560.53;4981444;28;20057;-72
2021/12/14 02:29:42;;;;;;;34.15;22.65;;;;;;;7.82;100.00;102557.63;4999727;28;20042;-72
2021/12/14 02:32:08;;;;;;;32.03;21.75;;;;;;;7.84;100.00;102556.31;4981214;28;20084;-71
2021/12/14 02:35:01;;;;;;;37.40;22.83;;;;;;;7.85;100.00;102557.13;4980972;28;20128;-71
2021/12/14 02:37:42;;;;;;;36.75;21.38;;;;;;;7.89;100.00;102553.69;4990915;28;20046;-71
2021/12/14 02:40:20;;;;;;;32.40;21.17;;;;;;;7.95;100.00;102568.19;4999256;28;20084;-71
2021/12/14 02:42:51;;;;;;;30.33;18.27;;;;;;;7.83;100.00;102553.84;4997821;28;20060;-71
2021/12/14 02:45:23;;;;;;;28.73;18.70;;;;;;;7.97;100.00;102555.22;4997445;28;20037;-71
2021/12/14 02:47:49;;;;;;;32.33;19.73;;;;;;;8.00;100.00;102553.88;4997757;28;20539;-74
2021/12/14 02:50:15;;;;;;;28.20;18.88;;;;;;;7.99;100.00;102563.09;4998821;28;20482;-71
2021/12/14 02:52:41;;;;;;;32.00;18.48;;;;;;;7.88;100.00;102562.94;4981195;28;20052;-71
2021/12/14 02:55:16;;;;;;;35.47;20.67;;;;;;;7.97;100.00;102559.78;4999179;28;20042;-71
2021/12/14 02:57:48;;;;;;;32.25;20.70;;;;;;;8.06;100.00;102548.31;4980196;28;20037;-71
2021/12/14 03:00:17;;;;;;;;;;;;;;;8.04;100.00;102555.88;4980759;28;20837;-71
2021/12/14 03:02:45;;;;;;;33.65;20.42;;;;;;;8.01;100.00;102550.09;4994455;28;19922;-71
2021/12/14 03:05:16;;;;;;;35.72;20.50;;;;;;;8.00;100.00;102545.72;4994226;28;20042;-71
2021/12/14 03:07:49;;;;;;;32.17;20.38;;;;;;;8.04;100.00;102549.63;4979190;28;20077;-71
2021/12/14 03:10:35;;;;;;;38.00;21.20;;;;;;;8.03;100.00;102543.34;4980528;28;20035;-72
2021/12/14 03:13:06;;;;;;;37.55;22.35;;;;;;;7.99;100.00;102535.94;4999119;28;20220;-71
2021/12/14 03:15:47;;;;;;;37.97;22.38;;;;;;;8.07;100.00;102535.53;4979973;28;20042;-72
2021/12/14 03:18:15;;;;;;;40.58;23.00;;;;;;;8.00;100.00;102530.28;4979398;28;20046;-71
2021/12/14 03:20:48;;;;;;;36.78;22.67;;;;;;;7.96;100.00;102529.09;4979834;28;20061;-71
2021/12/14 03:23:26;;;;;;;41.30;24.10;;;;;;;7.91;100.00;102515.41;4996278;28;20050;-71
2021/12/14 03:25:55;;;;;;;43.65;25.17;;;;;;;7.96;100.00;102518.22;4997844;28;20072;-72
2021/12/14 03:28:24;;;;;;;40.78;24.60;;;;;;;8.01;100.00;102528.38;4998413;28;20046;-72
2021/12/14 03:30:55;;;;;;;43.60;26.20;;;;;;;7.92;100.00;102530.66;4978836;28;20038;-72
2021/12/14 03:33:28;;;;;;;43.40;26.13;;;;;;;7.96;100.00;102531.00;4978918;28;20215;-72
2021/12/14 03:36:09;;;;;;;43.55;25.95;;;;;;;7.93;100.00;102529.59;4978983;28;20128;-71
2021/12/14 03:38:43;;;;;;;45.45;25.83;;;;;;;7.98;100.00;102521.53;4979874;28;20041;-71
2021/12/14 03:41:16;;;;;;;44.75;26.02;;;;;;;7.93;100.00;102516.00;4996838;28;20050;-72
2021/12/14 03:43:52;;;;;;;43.03;25.85;;;;;;;7.93;100.00;102526.88;4997094;28;20039;-72
2021/12/14 03:46:23;;;;;;;43.10;25.98;;;;;;;7.99;100.00;102536.75;4980079;28;20034;-71
2021/12/14 03:48:48;;;;;;;47.55;26.77;;;;;;;7.94;100.00;102540.22;4979740;28;20513;-71
2021/12/14 03:51:19;;;;;;;41.83;25.23;;;;;;;7.95;100.00;102541.03;4980225;28;20042;-71
2021/12/14 03:53:44;;;;;;;45.20;26.08;;;;;;;8.04;100.00;102563.19;4981361;28;20797;-71
2021/12/14 03:56:10;;;;;;;48.25;26.73;;;;;;;8.08;100.00;102567.88;4982015;28;20034;-71
2021/12/14 03:58:39;;;;;;;42.05;25.30;;;;;;;8.09;100.00;102574.97;4980508;28;20038;-73
2021/12/14 04:01:11;;;;;;;40.80;24.92;;;;;;;8.09;100.00;102566.00;4998721;28;20376;-72
2021/12/14 04:03:44;;;;;;;44.85;27.13;;;;;;;8.06;100.00;102575.47;4981454;28;20053;-72
2021/12/14 04:06:18;;;;;;;41.83;26.30;;;;;;;8.08;100.00;102570.59;4965796;28;20049;-71
2021/12/14 04:08:45;;;;;;;45.65;27.13;;;;;;;8.09;100.00;102579.59;4964538;28;20140;-71
2021/12/14 04:11:12;;;;;;;58.75;28.80;;;;;;;8.14;100.00;102577.81;4963710;28;20054;-72
2021/12/14 04:13:43;;;;;;;42.75;26.15;;;;;;;8.09;100.00;102580.41;4980274;28;20072;-71
2021/12/14 04:16:15;;;;;;;45.50;26.40;;;;;;;8.05;100.00;102581.97;4979686;28;20045;-71
2021/12/14 04:18:42;;;;;;;42.85;25.20;;;;;;;8.11;100.00;102572.81;4980400;28;20109;-70
2021/12/14 04:21:08;;;;;;;44.85;26.55;;;;;;;8.12;100.00;102563.63;4981194;28;20073;-71
2021/12/14 04:23:41;;;;;;;43.08;26.92;;;;;;;8.08;100.00;102557.00;4983452;28;20422;-71
2021/12/14 04:26:09;;;;;;;44.30;25.55;;;;;;;8.09;100.00;102558.69;4968022;28;20069;-72
2021/12/14 04:28:43;;;;;;;44.30;26.08;;;;;;;8.11;100.00;102561.13;4984870;28;20422;-71
2021/12/14 04:31:10;;;;;;;42.67;25.02;;;;;;;8.21;100.00;102565.94;4985551;28;20818;-73
2021/12/14 04:33:41;;;;;;;47.53;26.10;;;;;;;8.06;100.00;102561.06;5003409;28;20041;-73
2021/12/14 04:36:12;;;;;;;47.25;25.48;;;;;;;7.88;100.00;102562.06;4993627;28;20140;-72
2021/12/14 04:38:48;;;;;;;42.55;25.17;;;;;;;7.93;100.00;102564.91;5020737;28;20064;-72
2021/12/14 04:52:19;;;;;;;44.80;27.00;;;;;;;8.00;100.00;102541.13;4983879;28;20383;-71
2021/12/14 04:55:09;;;;;;;47.50;27.52;;;;;;;7.97;100.00;102536.19;4998838;28;20042;-71
2021/12/14 04:57:46;;;;;;;44.53;25.63;;;;;;;7.99;100.00;102542.19;4976456;28;20473;-71
2021/12/14 05:00:24;;;;;;;47.17;27.15;;;;;;;7.80;100.00;102541.59;5002229;28;21468;-71
2021/12/14 05:03:22;;;;;;;46.28;26.45;;;;;;;7.85;100.00;102524.53;4996484;28;20294;-71
2021/12/14 05:05:50;;;;;;;48.22;27.35;;;;;;;7.96;100.00;102537.25;4996229;28;20050;-71
2021/12/14 05:11:05;;;;;;;47.05;26.83;;;;;;;7.93;100.00;102535.84;4998920;28;20069;-71
2021/12/14 05:13:34;;;;;;;44.35;24.92;;;;;;;7.90;100.00;102538.22;4982493;28;20105;-71
2021/12/14 05:16:01;;;;;;;43.70;25.63;;;;;;;7.95;100.00;102535.59;4982681;28;20042;-70
2021/12/14 05:18:27;;;;;;;46.38;25.52;;;;;;;8.01;100.00;102534.63;4999574;28;20034;-70
2021/12/14 05:20:52;;;;;;;46.33;25.05;;;;;;;8.00;100.00;102537.56;4999974;28;20048;-70
2021/12/14 05:23:32;;;;;;;41.33;24.35;;;;;;;8.06;100.00;102529.28;4994643;28;20039;-70
2021/12/14 05:26:01;;;;;;;47.95;25.05;;;;;;;7.96;100.00;102515.50;4991869;28;20224;-70
2021/12/14 05:28:27;;;;;;;46.08;26.05;;;;;;;8.02;100.00;102519.13;4986738;28;20077;-70
2021/12/14 05:30:58;;;;;;;42.25;23.65;;;;;;;7.98;100.00;102523.44;4992442;28;20026;-70
2021/12/14 05:33:33;;;;;;;37.28;21.80;;;;;;;7.92;100.00;102536.09;4975853;28;20034;-70
2021/12/14 05:36:09;;;;;;;41.72;22.23;;;;;;;7.89;100.00;102539.31;4976669;28;20621;-70
2021/12/14 05:38:48;;;;;;;36.50;21.13;;;;;;;8.00;100.00;102530.28;4992511;28;20041;-71
2021/12/14 05:44:16;;;;;;;40.42;21.92;;;;;;;7.99;100.00;102544.91;4996254;28;20776;-70
2021/12/14 05:46:50;;;;;;;40.50;21.27;;;;;;;7.96;100.00;102541.84;4996099;28;20549;-71
2021/12/14 05:49:29;;;;;;;38.60;21.08;;;;;;;7.93;100.00;102543.16;4996108;28;20428;-72
2021/12/14 05:51:59;;;;;;;33.17;19.95;;;;;;;7.93;100.00;102540.44;4980826;28;20139;-71
2021/12/14 05:54:29;;;;;;;36.42;19.98;;;;;;;7.93;100.00;102548.59;4980449;28;20396;-72
2021/12/14 05:56:59;;;;;;;33.17;18.95;;;;;;;7.86;100.00;102550.66;4979967;28;20447;-72
2021/12/14 05:59:28;;;;;;;35.72;18.48;;;;;;;7.93;100.00;102549.41;4963456;28;20038;-72
2021/12/14 06:01:55;;;;;;;34.38;17.35;;;;;;;7.87;100.00;102555.00;4963274;28;20485;-72
2021/12/14 06:04:25;;;;;;;30.40;17.88;;;;;;;7.88;100.00;102562.06;4989766;28;20115;-72
2021/12/14 06:06:54;;;;;;;34.25;17.92;;;;;;;7.95;100.00;102557.34;4985803;28;20186;-69
2021/12/14 06:09:28;;;;;;;31.15;17.20;;;;;;;7.89;100.00;102564.56;4966717;28;20035;-72
2021/12/14 06:12:21;;;;;;;31.55;18.90;;;;;;;7.89;100.00;102569.19;4975703;28;20450;-72
2021/12/14 06:14:52;;;;;;;33.38;17.65;;;;;;;7.86;100.00;102569.66;4998116;28;20029;-72
2021/12/14 06:17:22;;;;;;;31.08;17.73;;;;;;;7.83;100.00;102578.31;4998607;28;20038;-72
2021/12/14 06:19:56;;;;;;;34.30;18.02;;;;;;;7.82;100.00;102579.34;4995343;28;20556;-72
2021/12/14 06:22:23;;;;;;;31.48;17.42;;;;;;;7.83;100.00;102583.72;5000894;28;20069;-72
2021/12/14 06:24:55;;;;;;;33.65;18.05;;;;;;;7.81;100.00;102585.84;4979680;28;20437;-72
2021/12/14 06:27:28;;;;;;;38.78;17.88;;;;;;;7.88;100.00;102578.38;4980275;28;20096;-71
2021/12/14 06:29:59;;;;;;;35.60;17.85;;;;;;;7.87;100.00;102582.16;4996840;28;20100;-72
2021/12/14 06:32:30;;;;;;;32.22;17.83;;;;;;;7.94;100.00;102582.84;4993415;28;20037;-70
2021/12/14 06:34:59;;;;;;;33.28;18.55;;;;;;;7.87;100.00;102582.16;4997939;28;20041;-72
2021/12/14 06:37:54;;;;;;;33.88;17.35;;;;;;;7.74;100.00;102593.31;4981597;28;20520;-71
2021/12/14 06:40:26;;;;;;;30.58;17.92;;;;;;;7.82;100.00;102595.66;4984820;28;20917;-72
2021/12/14 06:42:58;;;;;;;34.80;17.63;;;;;;;7.82;100.00;102598.34;4980593;28;20326;-72
2021/12/14 06:45:36;;;;;;;32.42;17.60;;;;;;;7.76;100.00;102597.44;4979763;28;20045;-71
2021/12/14 06:48:20;;;;;;;42.17;19.95;;;;;;;7.83;100.00;102598.13;4978436;28;20092;-71
2021/12/14 06:51:14;;;;;;;36.65;18.65;;;;;;;7.85;100.00;102600.59;4979179;28;20064;-70
2021/12/14 06:53:49;;;;;;;34.97;18.42;;;;;;;7.83;100.00;102602.75;4951417;28;20072;-71
2021/12/14 06:56:24;;;;;;;35.83;17.85;;;;;;;7.81;100.00;102599.44;4989455;28;20547;-71
2021/12/14 06:59:07;;;;;;;32.55;18.58;;;;;;;7.82;100.00;102618.19;4975693;28;20053;-71
2021/12/14 07:02:00;;;;;;;38.65;18.20;;;;;;;7.77;100.00;102611.88;4981745;28;20052;-71
2021/12/14 07:04:35;;;;;;;37.78;19.58;;;;;;;7.78;100.00;102611.59;4979324;28;20384;-71
2021/12/14 07:07:06;;;;;;;38.70;19.67;;;;;;;7.85;100.00;102616.88;4975861;28;20096;-71
2021/12/14 07:09:38;;;;;;;38.67;19.70;;;;;;;7.82;100.00;102622.81;4985258;28;20041;-70
2021/12/14 07:12:08;;;;;;;37.58;19.80;;;;;;;7.78;100.00;102621.66;4977223;28;20034;-71
2021/12/14 07:14:36;;;;;;;40.90;20.10;;;;;;;7.89;100.00;102623.50;4996914;28;20349;-70
2021/12/14 07:17:10;;;;;;;39.90;19.90;;;;;;;7.78;100.00;102621.66;4996132;28;20539;-71
2021/12/14 07:19:44;;;;;;;40.75;18.98;;;;;;;7.87;100.00;102620.19;4978384;28;20513;-71
2021/12/14 07:22:33;;;;;;;45.08;21.23;;;;;;;7.82;100.00;102637.19;4997162;28;20056;-71
2021/12/14 07:25:20;;;;;;;39.33;21.40;;;;;;;7.86;100.00;102632.13;4997896;28;20088;-71
2021/12/14 07:27:54;;;;;;;42.28;21.13;;;;;;;7.83;100.00;102629.91;4998082;28;20486;-70
2021/12/14 07:30:39;;;;;;;46.05;23.20;;;;;;;7.88;100.00;102632.69;4998159;28;20037;-71
2021/12/14 07:33:17;;;;;;;43.13;20.23;;;;;;;7.81;100.00;102642.88;5000191;28;20064;-71
2021/12/14 07:36:08;;;;;;;49.25;23.25;;;;;;;7.73;100.00;102646.78;4994862;28;20069;-71
2021/12/14 07:38:43;;;;;;;49.72;22.95;;;;;;;7.77;100.00;102653.41;4996154;28;20408;-70
2021/12/14 07:41:39;;;;;;;46.00;24.27;;;;;;;7.80;100.00;102652.13;4996793;28;20052;-71
2021/12/14 07:44:11;;;;;;;54.65;24.27;;;;;;;7.86;100.00;102651.97;4978777;28;20072;-71
2021/12/14 07:46:49;;;;;;;48.80;23.83;;;;;;;7.83;100.00;102647.03;4996070;28;20073;-71
2021/12/14 07:49:21;;;;;;;47.75;23.17;;;;;;;7.76;100.00;102646.31;4979039;28;20470;-71
2021/12/14 07:51:49;;;;;;;52.53;26.38;;;;;;;7.92;100.00;102655.63;4997025;28;20443;-71
2021/12/14 07:54:19;;;;;;;50.00;25.58;;;;;;;7.89;100.00;102654.19;4994743;28;20046;-71
2021/12/14 07:56:49;;;;;;;50.75;24.92;;;;;;;7.91;100.00;102656.66;4995973;28;20537;-71
2021/12/14 07:59:32;;;;;;;50.30;25.05;;;;;;;7.88;100.00;102654.44;4994422;28;20042;-71
2021/12/14 08:02:35;;;;;;;48.97;23.65;;;;;;;7.94;100.00;102658.91;4994137;28;20040;-71
2021/12/14 08:05:23;;;;;;;49.95;24.92;;;;;;;7.95;100.00;102655.13;4975055;28;20046;-71
2021/12/14 08:08:13;;;;;;;51.88;25.60;;;;;;;7.97;100.00;102652.16;4995992;28;20128;-71
2021/12/14 08:10:58;;;;;;;49.15;24.42;;;;;;;7.88;100.00;102659.84;4979557;28;20042;-71
2021/12/14 08:13:25;;;;;;;56.58;27.13;;;;;;;7.94;100.00;102661.59;4977692;28;20584;-71
2021/12/14 08:15:55;;;;;;;52.97;25.85;;;;;;;7.97;100.00;102655.72;4977609;28;20462;-71
2021/12/14 08:18:27;;;;;;;56.15;26.35;;;;;;;8.04;100.00;102675.41;4995933;28;20147;-71
2021/12/14 08:21:04;;;;;;;58.00;26.90;;;;;;;8.06;100.00;102667.84;4977517;28;20129;-71
2021/12/14 08:23:58;;;;;;;53.15;26.00;;;;;;;7.99;100.00;102667.16;4994806;28;20052;-71
2021/12/14 08:26:28;;;;;;;55.42;27.58;;;;;;;8.06;100.00;102662.41;4977927;28;20080;-71
2021/12/14 08:28:56;;;;;;;56.08;26.92;;;;;;;8.06;100.00;102662.41;4995649;28;20349;-71
2021/12/14 08:31:24;;;;;;;53.85;27.17;;;;;;;8.15;100.00;102669.13;4995526;28;20058;-71
2021/12/14 08:34:04;;;;;;;55.10;27.60;;;;;;;8.17;100.00;102663.41;4977221;28;20042;-71
2021/12/14 08:36:39;;;;;;;55.80;27.98;;;;;;;8.20;100.00;102671.09;4996107;28;20049;-71
2021/12/14 08:39:15;;;;;;;54.95;27.52;;;;;;;8.27;100.00;102668.25;4977677;28;20950;-71
2021/12/14 08:41:50;;;;;;;54.67;28.30;;;;;;;8.33;100.00;102661.81;4996051;28;20576;-71
2021/12/14 08:44:21;;;;;;;60.58;29.33;;;;;;;8.25;100.00;102664.94;4995884;28;20350;-71
2021/12/14 08:46:50;;;;;;;64.30;29.20;;;;;;;8.22;100.00;102668.13;4977881;28;20470;-71
2021/12/14 08:49:17;;;;;;;57.30;29.58;;;;;;;8.37;100.00;102654.81;4970921;28;20413;-70
2021/12/14 08:51:45;;;;;;;62.08;29.65;;;;;;;8.46;100.00;102666.97;4996859;28;20210;-71
2021/12/14 08:54:13;;;;;;;60.72;29.38;;;;;;;8.38;100.00;102653.78;5000656;28;20042;-71
2021/12/14 08:56:44;;;;;;;57.47;30.00;;;;;;;8.57;100.00;102663.38;4993142;28;20108;-71
2021/12/14 08:59:10;;;;;;;59.67;28.83;;;;;;;8.63;100.00;102661.56;4994824;28;20471;-71
2021/12/14 09:01:38;;;;;;;60.42;30.52;;;;;;;8.72;100.00;102659.25;4976738;28;20380;-72
2021/12/14 09:04:17;;;;;;;59.97;28.98;;;;;;;8.69;100.00;102668.75;4976998;28;20045;-72
2021/12/14 09:06:47;;;;;;;60.25;29.80;;;;;;;9.01;100.00;102655.38;4997066;28;20034;-71
2021/12/14 09:09:15;;;;;;;61.58;29.05;;;;;;;8.96;100.00;102654.47;5002076;28;20110;-71
2021/12/14 09:11:48;;;;;;;60.28;30.65;;;;;;;8.88;100.00;102658.47;4994842;28;20365;-71
2021/12/14 09:14:15;;;;;;;54.95;28.20;;;;;;;8.87;100.00;102655.97;4979153;28;20469;-71
2021/12/14 09:16:44;;;;;;;58.78;29.55;;;;;;;8.95;100.00;102656.38;4986418;28;20045;-71
2021/12/14 09:19:14;;;;;;;59.30;29.25;;;;;;;9.01;100.00;102663.53;5001448;28;20480;-71
2021/12/14 09:21:44;;;;;;;54.10;28.85;;;;;;;8.70;100.00;102664.97;4999743;28;20338;-71
2021/12/14 09:24:14;;;;;;;60.58;29.92;;;;;;;8.89;100.00;102665.53;4982708;28;20073;-71
2021/12/14 09:26:42;;;;;;;55.80;28.88;;;;;;;8.75;100.00;102667.75;5003932;28;20084;-72
2021/12/14 09:29:12;;;;;;;58.58;29.77;;;;;;;8.81;100.00;102668.66;4983253;28;20585;-72
2021/12/14 09:31:40;;;;;;;57.25;29.42;;;;;;;8.80;100.00;102669.75;4997785;28;20052;-72
2021/12/14 09:34:09;;;;;;;56.65;30.30;;;;;;;8.86;100.00;102676.91;4992863;28;20045;-71
2021/12/14 09:36:35;;;;;;;59.63;29.13;;;;;;;8.97;100.00;102673.28;4996332;28;20084;-72
2021/12/14 09:39:19;;;;;;;58.55;29.40;;;;;;;8.98;100.00;102679.56;4981734;28;20042;-72
2021/12/14 09:41:50;;;;;;;61.08;30.00;;;;;;;8.94;100.00;102667.53;4981592;28;20042;-72
2021/12/14 09:44:20;;;;;;;60.35;30.63;;;;;;;9.07;100.00;102668.03;4998319;28;20048;-72
2021/12/14 09:46:46;;;;;;;66.68;30.77;;;;;;;9.03;100.00;102672.28;4999922;28;20088;-72
2021/12/14 09:49:14;;;;;;;65.50;32.58;;;;;;;8.87;100.00;102678.56;4999869;28;20041;-71
2021/12/14 09:51:51;;;;;;;64.85;32.25;;;;;;;8.92;100.00;102669.66;4982614;28;20381;-71
2021/12/14 09:54:21;;;;;;;69.18;32.92;;;;;;;9.13;100.00;102665.34;4982028;28;20136;-71
2021/12/14 09:56:52;;;;;;;62.80;32.50;;;;;;;9.30;100.00;102671.59;4981975;28;20472;-72
2021/12/14 09:59:19;;;;;;;65.80;33.70;;;;;;;9.14;100.00;102669.75;5000258;28;20049;-71
2021/12/14 10:01:50;;;;;;;69.43;33.30;;;;;;;9.16;100.00;102664.84;4982468;28;20092;-71
2021/12/14 10:04:34;;;;;;;61.05;31.55;;;;;;;8.95;100.00;102667.25;4983413;28;20554;-71
2021/12/14 10:07:02;;;;;;;65.72;33.60;;;;;;;9.15;100.00;102663.22;4993432;28;20060;-72
2021/12/14 10:09:37;;;;;;;68.60;33.72;;;;;;;9.14;100.00;102656.13;5001100;28;20046;-71
2021/12/14 10:12:19;;;;;;;70.90;34.28;;;;;;;9.12;100.00;102664.53;4985468;28;20073;-71
2021/12/14 10:14:48;;;;;;;71.43;35.50;;;;;;;9.02;100.00;102658.94;5003690;28;20203;-71
2021/12/14 10:17:15;;;;;;;68.13;33.67;;;;;;;9.06;100.00;102660.09;5004602;28;20091;-72
2021/12/14 10:19:43;;;;;;;70.10;34.97;;;;;;;9.20;100.00;102666.03;5004567;28;20469;-71
2021/12/14 10:22:14;;;;;;;69.53;33.38;;;;;;;9.22;100.00;102666.56;5004183;28;20115;-71
2021/12/14 10:24:39;;;;;;;70.25;34.45;;;;;;;9.19;100.00;102658.91;5000802;28;20069;-71
2021/12/14 10:27:13;;;;;;;69.70;34.70;;;;;;;9.16;100.00;102662.97;5002041;28;20104;-71
2021/12/14 10:29:40;;;;;;;65.05;33.78;;;;;;;9.24;100.00;102667.16;5002790;28;20049;-71
2021/12/14 10:32:16;;;;;;;67.93;33.25;;;;;;;9.33;100.00;102662.94;5001652;28;20269;-71
2021/12/14 10:34:50;;;;;;;70.85;34.38;;;;;;;9.38;100.00;102665.72;5003045;28;20372;-72
2021/12/14 10:37:23;;;;;;;73.63;33.88;;;;;;;9.36;100.00;102665.16;5002908;28;20041;-72
2021/12/14 10:43:12;;;;;;;69.57;36.25;;;;;;;9.37;100.00;102666.81;4941537;29;20049;-71
2021/12/14 10:45:41;;;;;;;74.63;36.33;;;;;;;9.31;100.00;102662.38;4997258;28;20153;-71
2021/12/14 10:48:06;;;;;;;72.57;34.33;;;;;;;9.47;100.00;102672.38;5002887;28;20041;-70
2021/12/14 10:50:36;;;;;;;77.75;35.80;;;;;;;9.66;100.00;102669.38;4987939;28;20048;-71
2021/12/14 10:53:03;;;;;;;74.47;37.25;;;;;;;9.59;100.00;102671.47;5007172;28;20041;-71
2021/12/14 10:55:38;;;;;;;74.55;36.03;;;;;;;9.52;100.00;102669.75;4988783;28;20053;-71
2021/12/14 10:58:06;;;;;;;76.88;36.50;;;;;;;9.51;100.00;102664.53;5006437;28;20353;-73
2021/12/14 11:00:42;;;;;;;75.68;37.28;;;;;;;9.59;100.00;102677.72;5005004;28;20064;-71
2021/12/14 11:03:15;;;;;;;74.32;36.60;;;;;;;9.61;100.00;102672.03;5003241;28;20052;-71
2021/12/14 11:05:45;;;;;;;77.32;37.67;;;;;;;9.60;100.00;102675.81;4984393;28;20305;-71
2021/12/14 11:08:22;;;;;;;80.10;38.03;;;;;;;9.63;100.00;102672.59;5000676;28;20138;-71
2021/12/14 11:10:52;;;;;;;75.47;37.15;;;;;;;9.53;100.00;102674.09;4999535;28;20083;-71
2021/12/14 11:13:18;;;;;;;78.28;36.17;;;;;;;9.51;100.00;102673.56;4998954;28;20432;-71
2021/12/14 11:15:48;;;;;;;76.82;37.63;;;;;;;9.58;100.00;102667.09;4980297;28;20498;-71
2021/12/14 11:18:19;;;;;;;75.85;37.22;;;;;;;9.71;100.00;102661.25;4980994;28;20050;-71
2021/12/14 11:20:53;;;;;;;78.88;37.78;;;;;;;9.72;100.00;102658.28;4996946;28;20053;-71
2021/12/14 11:23:26;;;;;;;77.93;38.80;;;;;;;9.64;100.00;102652.47;4998028;28;20088;-71
2021/12/14 11:25:54;;;;;;;84.63;40.60;;;;;;;9.60;100.00;102649.44;4997020;28;20041;-71
2021/12/14 11:28:32;;;;;;;81.75;39.78;;;;;;;9.82;100.00;102643.97;4998249;28;20040;-71
2021/12/14 11:31:12;;;;;;;81.97;39.50;;;;;;;9.72;100.00;102649.31;4995105;28;20045;-71
2021/12/14 11:33:44;;;;;;;85.45;40.78;;;;;;;9.69;100.00;102641.66;4998762;28;20048;-71
2021/12/14 11:36:51;;;;;;;87.97;42.40;;;;;;;9.73;100.00;102640.03;5000427;28;20033;-72
2021/12/14 11:39:23;;;;;;;84.72;39.28;;;;;;;9.94;100.00;102639.19;4999985;28;20045;-71
2021/12/14 11:41:57;;;;;;;83.63;39.47;;;;;;;9.82;100.00;102641.25;5000249;28;20045;-72
2021/12/14 11:44:38;;;;;;;86.65;40.97;;;;;;;9.74;100.00;102630.78;4975584;28;20069;-71
2021/12/14 11:47:33;;;;;;;84.75;41.47;;;;;;;10.01;100.00;102633.56;4995335;28;20056;-72
2021/12/14 11:50:23;;;;;;;80.95;39.67;;;;;;;9.85;100.00;102629.84;4998840;28;20109;-72
2021/12/14 11:53:06;;;;;;;81.68;41.30;;;;;;;9.89;100.00;102633.72;4994268;28;20046;-72
2021/12/14 11:55:48;;;;;;;90.07;40.83;;;;;;;10.06;100.00;102635.50;4991597;28;20049;-71
2021/12/14 11:58:33;;;;;;;85.55;41.85;;;;;;;9.97;100.00;102633.22;4995879;28;20042;-72
2021/12/14 12:01:17;;;;;;;87.85;41.67;;;;;;;9.83;100.00;102634.72;4996308;28;20107;-72
2021/12/14 12:04:13;;;;;;;84.47;42.88;;;;;;;9.86;100.00;102626.06;4974333;28;20061;-71